sensor_id;sensor_type;location;lat;lon;timestamp;pressure;altitude;pressure_sealevel;temperature;humidity
59686;BME280;45554;51.096;16.976;2024-01-15T00:00:35;98283.16;;;0.80;81.93
59686;BME280;45554;51.096;16.976;2024-01-15T00:03:24;98275.83;;;0.82;81.88
59686;BME280;45554;51.096;16.976;2024-01-15T00:05:52;98278.17;;;0.85;81.83
59686;BME280;45554;51.096;16.976;2024-01-15T00:08:20;98275.82;;;0.86;81.70
59686;BME280;45554;51.096;16.976;2024-01-15T00:10:48;98265.60;;;0.87;80.94
59686;BME280;45554;51.096;16.976;2024-01-15T00:13:16;98262.11;;;0.88;81.05
59686;BME280;45554;51.096;16.976;2024-01-15T00:15:44;98253.38;;;0.91;80.64
59686;BME280;45554;51.096;16.976;2024-01-15T00:18:13;98247.14;;;0.91;80.30
59686;BME280;45554;51.096;16.976;2024-01-15T00:20:41;98239.75;;;0.90;80.49
59686;BME280;45554;51.096;16.976;2024-01-15T00:23:09;98235.67;;;0.93;80.17
59686;BME280;45554;51.096;16.976;2024-01-15T00:25:36;98236.34;;;0.93;79.86
59686;BME280;45554;51.096;16.976;2024-01-15T00:28:05;98228.30;;;0.92;79.88
59686;BME280;45554;51.096;16.976;2024-01-15T00:30:33;98222.48;;;0.91;79.46
59686;BME280;45554;51.096;16.976;2024-01-15T00:33:01;98217.48;;;0.91;79.76
59686;BME280;45554;51.096;16.976;2024-01-15T00:35:29;98211.43;;;0.91;79.64
59686;BME280;45554;51.096;16.976;2024-01-15T00:37:57;98207.94;;;0.92;79.30
59686;BME280;45554;51.096;16.976;2024-01-15T00:40:25;98205.84;;;0.93;79.04
59686;BME280;45554;51.096;16.976;2024-01-15T00:42:53;98197.36;;;0.93;78.50
59686;BME280;45554;51.096;16.976;2024-01-15T00:45:21;98187.53;;;0.93;78.58
59686;BME280;45554;51.096;16.976;2024-01-15T00:47:49;98186.95;;;0.94;78.24
59686;BME280;45554;51.096;16.976;2024-01-15T00:50:18;98187.28;;;0.94;78.26
59686;BME280;45554;51.096;16.976;2024-01-15T00:52:45;98178.48;;;0.95;78.36
59686;BME280;45554;51.096;16.976;2024-01-15T00:55:14;98171.45;;;0.94;77.89
59686;BME280;45554;51.096;16.976;2024-01-15T00:57:44;98174.77;;;0.93;78.01
59686;BME280;45554;51.096;16.976;2024-01-15T01:00:12;98171.51;;;0.93;77.68
59686;BME280;45554;51.096;16.976;2024-01-15T01:02:41;98170.49;;;0.92;77.60
59686;BME280;45554;51.096;16.976;2024-01-15T01:05:09;98170.52;;;0.92;77.40
59686;BME280;45554;51.096;16.976;2024-01-15T01:07:37;98164.16;;;0.91;77.37
59686;BME280;45554;51.096;16.976;2024-01-15T01:10:06;98165.91;;;0.91;77.52
59686;BME280;45554;51.096;16.976;2024-01-15T01:12:34;98166.66;;;0.90;77.54
59686;BME280;45554;51.096;16.976;2024-01-15T01:15:03;98162.21;;;0.89;77.14
59686;BME280;45554;51.096;16.976;2024-01-15T01:17:31;98159.86;;;0.88;77.14
59686;BME280;45554;51.096;16.976;2024-01-15T01:19:59;98158.85;;;0.87;77.30
59686;BME280;45554;51.096;16.976;2024-01-15T01:22:28;98154.89;;;0.87;76.89
59686;BME280;45554;51.096;16.976;2024-01-15T01:24:56;98149.58;;;0.86;76.99
59686;BME280;45554;51.096;16.976;2024-01-15T01:27:24;98148.07;;;0.85;77.07
59686;BME280;45554;51.096;16.976;2024-01-15T01:29:51;98150.52;;;0.85;76.54
59686;BME280;45554;51.096;16.976;2024-01-15T01:32:19;98150.45;;;0.86;76.51
59686;BME280;45554;51.096;16.976;2024-01-15T01:34:48;98152.53;;;0.86;76.63
59686;BME280;45554;51.096;16.976;2024-01-15T01:37:16;98153.21;;;0.86;76.45
59686;BME280;45554;51.096;16.976;2024-01-15T01:39:44;98144.76;;;0.86;76.76
59686;BME280;45554;51.096;16.976;2024-01-15T01:42:12;98142.30;;;0.87;76.37
59686;BME280;45554;51.096;16.976;2024-01-15T01:44:40;98136.94;;;0.87;76.31
59686;BME280;45554;51.096;16.976;2024-01-15T01:47:08;98136.06;;;0.88;76.30
59686;BME280;45554;51.096;16.976;2024-01-15T01:49:37;98127.23;;;0.88;75.95
59686;BME280;45554;51.096;16.976;2024-01-15T01:52:06;98120.88;;;0.88;75.62
59686;BME280;45554;51.096;16.976;2024-01-15T01:54:35;98128.23;;;0.89;76.10
59686;BME280;45554;51.096;16.976;2024-01-15T01:57:05;98127.49;;;0.90;75.68
59686;BME280;45554;51.096;16.976;2024-01-15T01:59:34;98130.23;;;0.91;75.88
59686;BME280;45554;51.096;16.976;2024-01-15T02:02:03;98130.38;;;0.91;75.71
59686;BME280;45554;51.096;16.976;2024-01-15T02:04:32;98130.71;;;0.91;76.48
59686;BME280;45554;51.096;16.976;2024-01-15T02:07:01;98134.65;;;0.88;77.34
59686;BME280;45554;51.096;16.976;2024-01-15T02:09:29;98132.35;;;0.83;78.18
59686;BME280;45554;51.096;16.976;2024-01-15T02:11:57;98135.84;;;0.78;78.24
59686;BME280;45554;51.096;16.976;2024-01-15T02:14:25;98139.17;;;0.74;78.26
59686;BME280;45554;51.096;16.976;2024-01-15T02:16:53;98128.27;;;0.67;80.19
59686;BME280;45554;51.096;16.976;2024-01-15T02:19:21;98117.45;;;0.59;80.25
59686;BME280;45554;51.096;16.976;2024-01-15T02:21:49;98119.90;;;0.55;80.99
59686;BME280;45554;51.096;16.976;2024-01-15T02:24:18;98117.05;;;0.50;80.80
59686;BME280;45554;51.096;16.976;2024-01-15T02:26:46;98111.74;;;0.45;80.59
59686;BME280;45554;51.096;16.976;2024-01-15T02:29:14;98107.12;;;0.45;80.67
59686;BME280;45554;51.096;16.976;2024-01-15T02:31:43;98107.13;;;0.45;80.68
59686;BME280;45554;51.096;16.976;2024-01-15T02:34:11;98103.45;;;0.46;80.34
59686;BME280;45554;51.096;16.976;2024-01-15T02:36:39;98095.27;;;0.44;80.28
59686;BME280;45554;51.096;16.976;2024-01-15T02:39:07;98089.96;;;0.47;80.25
59686;BME280;45554;51.096;16.976;2024-01-15T02:41:36;98085.42;;;0.48;80.06
59686;BME280;45554;51.096;16.976;2024-01-15T02:44:04;98093.27;;;0.49;80.41
59686;BME280;45554;51.096;16.976;2024-01-15T02:46:32;98092.45;;;0.52;79.92
59686;BME280;45554;51.096;16.976;2024-01-15T02:49:00;98101.02;;;0.53;80.68
59686;BME280;45554;51.096;16.976;2024-01-15T02:51:28;98097.67;;;0.51;81.48
59686;BME280;45554;51.096;16.976;2024-01-15T02:53:57;98092.43;;;0.49;81.52
59686;BME280;45554;51.096;16.976;2024-01-15T02:56:25;98088.56;;;0.47;81.58
59686;BME280;45554;51.096;16.976;2024-01-15T02:58:52;98087.27;;;0.45;81.13
59686;BME280;45554;51.096;16.976;2024-01-15T03:01:20;98073.30;;;0.46;81.08
59686;BME280;45554;51.096;16.976;2024-01-15T03:03:50;98066.09;;;0.45;81.09
59686;BME280;45554;51.096;16.976;2024-01-15T03:06:18;98062.96;;;0.45;80.85
59686;BME280;45554;51.096;16.976;2024-01-15T03:08:46;98056.09;;;0.45;80.70
59686;BME280;45554;51.096;16.976;2024-01-15T03:11:14;98054.73;;;0.45;80.57
59686;BME280;45554;51.096;16.976;2024-01-15T03:13:42;98058.66;;;0.45;80.33
59686;BME280;45554;51.096;16.976;2024-01-15T03:16:10;98062.59;;;0.46;79.62
59686;BME280;45554;51.096;16.976;2024-01-15T03:18:38;98059.80;;;0.47;79.77
59686;BME280;45554;51.096;16.976;2024-01-15T03:21:06;98056.68;;;0.47;79.60
59686;BME280;45554;51.096;16.976;2024-01-15T03:23:34;98052.80;;;0.49;79.89
59686;BME280;45554;51.096;16.976;2024-01-15T03:26:02;98043.12;;;0.50;79.85
59686;BME280;45554;51.096;16.976;2024-01-15T03:28:30;98042.22;;;0.50;79.81
59686;BME280;45554;51.096;16.976;2024-01-15T03:30:58;98043.17;;;0.51;79.52
59686;BME280;45554;51.096;16.976;2024-01-15T03:33:26;98045.23;;;0.52;79.50
59686;BME280;45554;51.096;16.976;2024-01-15T03:35:54;98052.58;;;0.53;79.54
59686;BME280;45554;51.096;16.976;2024-01-15T03:38:23;98054.60;;;0.54;79.10
59686;BME280;45554;51.096;16.976;2024-01-15T03:40:51;98051.17;;;0.54;78.82
59686;BME280;45554;51.096;16.976;2024-01-15T03:43:19;98044.21;;;0.55;78.66
59686;BME280;45554;51.096;16.976;2024-01-15T03:45:47;98046.77;;;0.56;78.87
59686;BME280;45554;51.096;16.976;2024-01-15T03:48:15;98039.32;;;0.57;78.57
59686;BME280;45554;51.096;16.976;2024-01-15T03:50:43;98041.90;;;0.57;78.24
59686;BME280;45554;51.096;16.976;2024-01-15T03:53:11;98038.06;;;0.58;78.61
59686;BME280;45554;51.096;16.976;2024-01-15T03:55:39;98035.06;;;0.59;78.52
59686;BME280;45554;51.096;16.976;2024-01-15T03:58:07;98031.69;;;0.61;78.12
59686;BME280;45554;51.096;16.976;2024-01-15T04:00:35;98023.17;;;0.62;78.02
59686;BME280;45554;51.096;16.976;2024-01-15T04:03:03;98021.52;;;0.65;77.67
59686;BME280;45554;51.096;16.976;2024-01-15T04:05:31;98016.16;;;0.65;77.73
59686;BME280;45554;51.096;16.976;2024-01-15T04:07:59;98018.54;;;0.65;77.29
59686;BME280;45554;51.096;16.976;2024-01-15T04:10:28;98021.89;;;0.67;77.01
59686;BME280;45554;51.096;16.976;2024-01-15T04:12:55;98020.64;;;0.68;76.71
59686;BME280;45554;51.096;16.976;2024-01-15T04:15:23;98012.95;;;0.70;76.60
59686;BME280;45554;51.096;16.976;2024-01-15T04:17:52;98003.27;;;0.71;76.18
59686;BME280;45554;51.096;16.976;2024-01-15T04:20:20;97998.96;;;0.71;76.66
59686;BME280;45554;51.096;16.976;2024-01-15T04:22:52;97997.41;;;0.71;76.65
59686;BME280;45554;51.096;16.976;2024-01-15T04:25:20;97996.55;;;0.71;76.59
59686;BME280;45554;51.096;16.976;2024-01-15T04:27:48;97994.39;;;0.69;76.65
59686;BME280;45554;51.096;16.976;2024-01-15T04:30:16;98002.16;;;0.69;76.91
59686;BME280;45554;51.096;16.976;2024-01-15T04:32:45;97999.27;;;0.68;76.74
59686;BME280;45554;51.096;16.976;2024-01-15T04:35:13;97995.80;;;0.68;76.71
59686;BME280;45554;51.096;16.976;2024-01-15T04:37:41;97986.64;;;0.68;76.85
59686;BME280;45554;51.096;16.976;2024-01-15T04:40:10;97976.98;;;0.69;76.82
59686;BME280;45554;51.096;16.976;2024-01-15T04:42:38;97971.77;;;0.70;76.72
59686;BME280;45554;51.096;16.976;2024-01-15T04:45:06;97966.90;;;0.71;76.87
59686;BME280;45554;51.096;16.976;2024-01-15T04:47:35;97963.08;;;0.71;76.89
59686;BME280;45554;51.096;16.976;2024-01-15T04:50:05;97967.77;;;0.74;76.69
59686;BME280;45554;51.096;16.976;2024-01-15T04:52:33;97963.64;;;0.74;76.42
59686;BME280;45554;51.096;16.976;2024-01-15T04:55:01;97965.48;;;0.74;76.54
59686;BME280;45554;51.096;16.976;2024-01-15T04:57:29;97972.90;;;0.75;76.44
59686;BME280;45554;51.096;16.976;2024-01-15T04:59:57;97976.52;;;0.75;76.24
59686;BME280;45554;51.096;16.976;2024-01-15T05:02:25;97968.70;;;0.76;75.91
59686;BME280;45554;51.096;16.976;2024-01-15T05:04:53;97970.90;;;0.77;76.32
59686;BME280;45554;51.096;16.976;2024-01-15T05:07:21;97970.41;;;0.76;75.67
59686;BME280;45554;51.096;16.976;2024-01-15T05:09:49;97977.70;;;0.78;75.24
59686;BME280;45554;51.096;16.976;2024-01-15T05:12:17;97967.61;;;0.80;75.43
59686;BME280;45554;51.096;16.976;2024-01-15T05:14:46;97971.54;;;0.81;75.61
59686;BME280;45554;51.096;16.976;2024-01-15T05:17:14;97975.17;;;0.84;75.50
59686;BME280;45554;51.096;16.976;2024-01-15T05:19:44;97976.45;;;0.86;75.13
59686;BME280;45554;51.096;16.976;2024-01-15T05:22:13;97975.96;;;0.89;75.31
59686;BME280;45554;51.096;16.976;2024-01-15T05:24:41;97984.00;;;0.90;75.46
59686;BME280;45554;51.096;16.976;2024-01-15T05:27:11;98003.59;;;0.91;75.82
59686;BME280;45554;51.096;16.976;2024-01-15T05:29:39;97995.42;;;0.89;77.10
59686;BME280;45554;51.096;16.976;2024-01-15T05:32:08;98001.12;;;0.83;78.74
59686;BME280;45554;51.096;16.976;2024-01-15T05:34:35;98004.19;;;0.73;80.04
59686;BME280;45554;51.096;16.976;2024-01-15T05:37:04;97997.40;;;0.64;81.45
59686;BME280;45554;51.096;16.976;2024-01-15T05:39:31;98002.18;;;0.55;82.48
59686;BME280;45554;51.096;16.976;2024-01-15T05:41:59;97995.11;;;0.45;83.32
59686;BME280;45554;51.096;16.976;2024-01-15T05:44:29;97996.16;;;0.37;84.67
59686;BME280;45554;51.096;16.976;2024-01-15T05:46:57;97992.70;;;0.31;84.70
59686;BME280;45554;51.096;16.976;2024-01-15T05:49:24;97995.05;;;0.25;84.78
59686;BME280;45554;51.096;16.976;2024-01-15T05:51:52;97999.83;;;0.22;85.12
59686;BME280;45554;51.096;16.976;2024-01-15T05:54:21;98006.31;;;0.20;85.25
59686;BME280;45554;51.096;16.976;2024-01-15T05:56:48;98000.02;;;0.18;85.31
59686;BME280;45554;51.096;16.976;2024-01-15T05:59:16;97998.34;;;0.17;85.39
59686;BME280;45554;51.096;16.976;2024-01-15T06:01:44;97994.23;;;0.17;85.10
59686;BME280;45554;51.096;16.976;2024-01-15T06:04:12;97995.38;;;0.15;85.61
59686;BME280;45554;51.096;16.976;2024-01-15T06:06:41;98004.62;;;0.16;86.08
59686;BME280;45554;51.096;16.976;2024-01-15T06:09:09;98008.80;;;0.15;86.64
59686;BME280;45554;51.096;16.976;2024-01-15T06:11:37;98001.30;;;0.13;86.36
59686;BME280;45554;51.096;16.976;2024-01-15T06:14:04;98008.08;;;0.12;86.28
59686;BME280;45554;51.096;16.976;2024-01-15T06:16:33;97996.96;;;0.10;86.52
59686;BME280;45554;51.096;16.976;2024-01-15T06:19:00;98001.13;;;0.09;86.32
59686;BME280;45554;51.096;16.976;2024-01-15T06:21:29;97990.31;;;0.09;86.47
59686;BME280;45554;51.096;16.976;2024-01-15T06:23:57;97987.59;;;0.08;86.39
59686;BME280;45554;51.096;16.976;2024-01-15T06:26:25;97986.02;;;0.09;86.34
59686;BME280;45554;51.096;16.976;2024-01-15T06:28:53;98008.77;;;0.08;86.21
59686;BME280;45554;51.096;16.976;2024-01-15T06:31:21;98010.06;;;0.10;86.16
59686;BME280;45554;51.096;16.976;2024-01-15T06:33:49;98001.25;;;0.10;86.19
59686;BME280;45554;51.096;16.976;2024-01-15T06:36:17;98005.86;;;0.11;85.78
59686;BME280;45554;51.096;16.976;2024-01-15T06:38:46;98009.03;;;0.13;85.49
59686;BME280;45554;51.096;16.976;2024-01-15T06:41:13;98006.36;;;0.15;84.68
59686;BME280;45554;51.096;16.976;2024-01-15T06:43:41;98011.33;;;0.16;84.93
59686;BME280;45554;51.096;16.976;2024-01-15T06:46:10;98014.66;;;0.18;84.79
59686;BME280;45554;51.096;16.976;2024-01-15T06:48:38;98026.91;;;0.18;84.61
59686;BME280;45554;51.096;16.976;2024-01-15T06:51:06;98021.02;;;0.18;84.31
59686;BME280;45554;51.096;16.976;2024-01-15T06:53:34;98032.29;;;0.17;84.13
59686;BME280;45554;51.096;16.976;2024-01-15T06:56:02;98035.93;;;0.17;83.99
59686;BME280;45554;51.096;16.976;2024-01-15T06:58:33;98036.11;;;0.16;83.21
59686;BME280;45554;51.096;16.976;2024-01-15T07:01:01;98038.15;;;0.17;82.71
59686;BME280;45554;51.096;16.976;2024-01-15T07:03:30;98043.42;;;0.19;81.88
59686;BME280;45554;51.096;16.976;2024-01-15T07:05:58;98044.27;;;0.22;81.78
59686;BME280;45554;51.096;16.976;2024-01-15T07:08:26;98044.04;;;0.27;81.37
59686;BME280;45554;51.096;16.976;2024-01-15T07:10:54;98056.75;;;0.32;80.56
59686;BME280;45554;51.096;16.976;2024-01-15T07:13:22;98051.43;;;0.34;80.01
59686;BME280;45554;51.096;16.976;2024-01-15T07:15:52;98055.41;;;0.38;79.01
59686;BME280;45554;51.096;16.976;2024-01-15T07:18:20;98063.24;;;0.43;78.69
59686;BME280;45554;51.096;16.976;2024-01-15T07:20:49;98057.23;;;0.46;77.94
59686;BME280;45554;51.096;16.976;2024-01-15T07:23:17;98058.30;;;0.49;78.11
59686;BME280;45554;51.096;16.976;2024-01-15T07:25:45;98057.81;;;0.52;78.29
59686;BME280;45554;51.096;16.976;2024-01-15T07:28:13;98059.92;;;0.55;77.76
59686;BME280;45554;51.096;16.976;2024-01-15T07:30:42;98082.19;;;0.58;77.20
59686;BME280;45554;51.096;16.976;2024-01-15T07:33:13;98077.90;;;0.61;76.28
59686;BME280;45554;51.096;16.976;2024-01-15T07:35:42;98073.54;;;0.62;76.11
59686;BME280;45554;51.096;16.976;2024-01-15T07:38:10;98079.11;;;0.64;75.50
59686;BME280;45554;51.096;16.976;2024-01-15T07:40:39;98080.90;;;0.66;75.88
59686;BME280;45554;51.096;16.976;2024-01-15T07:43:07;98075.83;;;0.68;74.84
59686;BME280;45554;51.096;16.976;2024-01-15T07:45:36;98070.67;;;0.71;74.89
59686;BME280;45554;51.096;16.976;2024-01-15T07:48:04;98066.01;;;0.75;74.54
59686;BME280;45554;51.096;16.976;2024-01-15T07:50:35;98066.92;;;0.77;73.83
59686;BME280;45554;51.096;16.976;2024-01-15T07:53:04;98059.90;;;0.79;73.56
59686;BME280;45554;51.096;16.976;2024-01-15T07:55:32;98056.34;;;0.82;72.98
59686;BME280;45554;51.096;16.976;2024-01-15T07:58:00;98052.84;;;0.82;72.47
59686;BME280;45554;51.096;16.976;2024-01-15T08:00:43;98030.73;;;0.86;72.15
59686;BME280;45554;51.096;16.976;2024-01-15T08:03:13;98030.15;;;0.88;71.10
59686;BME280;45554;51.096;16.976;2024-01-15T08:05:43;98025.66;;;0.91;71.07
59686;BME280;45554;51.096;16.976;2024-01-15T08:08:11;98032.98;;;0.93;70.59
59686;BME280;45554;51.096;16.976;2024-01-15T08:10:43;98022.01;;;0.95;69.96
59686;BME280;45554;51.096;16.976;2024-01-15T08:13:11;98030.14;;;0.98;69.51
59686;BME280;45554;51.096;16.976;2024-01-15T08:15:41;98030.89;;;1.01;69.28
59686;BME280;45554;51.096;16.976;2024-01-15T08:18:12;98026.63;;;1.03;69.20
59686;BME280;45554;51.096;16.976;2024-01-15T08:20:40;98027.23;;;1.05;68.95
59686;BME280;45554;51.096;16.976;2024-01-15T08:23:09;98017.30;;;1.06;68.55
59686;BME280;45554;51.096;16.976;2024-01-15T08:25:38;98009.81;;;1.08;68.47
59686;BME280;45554;51.096;16.976;2024-01-15T08:28:06;98017.94;;;1.11;68.25
59686;BME280;45554;51.096;16.976;2024-01-15T08:30:35;98025.92;;;1.13;67.34
59686;BME280;45554;51.096;16.976;2024-01-15T08:33:06;98028.89;;;1.16;67.10
59686;BME280;45554;51.096;16.976;2024-01-15T08:35:49;98031.81;;;1.19;66.81
59686;BME280;45554;51.096;16.976;2024-01-15T08:38:18;98030.85;;;1.21;66.63
59686;BME280;45554;51.096;16.976;2024-01-15T08:40:48;98036.59;;;1.24;66.64
59686;BME280;45554;51.096;16.976;2024-01-15T08:43:16;98041.47;;;1.23;65.98
59686;BME280;45554;51.096;16.976;2024-01-15T08:45:44;98034.22;;;1.23;65.89
59686;BME280;45554;51.096;16.976;2024-01-15T08:48:13;98042.75;;;1.21;65.81
59686;BME280;45554;51.096;16.976;2024-01-15T08:50:41;98037.33;;;1.23;65.63
59686;BME280;45554;51.096;16.976;2024-01-15T08:53:09;98044.45;;;1.25;65.82
59686;BME280;45554;51.096;16.976;2024-01-15T08:55:37;98050.77;;;1.30;65.34
59686;BME280;45554;51.096;16.976;2024-01-15T08:58:05;98046.23;;;1.34;65.01
59686;BME280;45554;51.096;16.976;2024-01-15T09:00:34;98038.52;;;1.39;64.78
59686;BME280;45554;51.096;16.976;2024-01-15T09:03:05;98041.92;;;1.44;64.54
59686;BME280;45554;51.096;16.976;2024-01-15T09:05:33;98059.06;;;1.46;63.75
59686;BME280;45554;51.096;16.976;2024-01-15T09:08:01;98044.63;;;1.48;63.58
59686;BME280;45554;51.096;16.976;2024-01-15T09:10:29;98039.83;;;1.48;63.47
59686;BME280;45554;51.096;16.976;2024-01-15T09:12:57;98030.67;;;1.48;63.81
59686;BME280;45554;51.096;16.976;2024-01-15T09:15:25;98029.20;;;1.49;63.93
59686;BME280;45554;51.096;16.976;2024-01-15T09:17:53;98039.48;;;1.51;64.03
59686;BME280;45554;51.096;16.976;2024-01-15T09:20:22;98043.17;;;1.53;63.79
59686;BME280;45554;51.096;16.976;2024-01-15T09:22:50;98037.15;;;1.56;63.65
59686;BME280;45554;51.096;16.976;2024-01-15T09:25:18;98034.52;;;1.57;63.36
59686;BME280;45554;51.096;16.976;2024-01-15T09:27:46;98037.67;;;1.56;63.36
59686;BME280;45554;51.096;16.976;2024-01-15T09:30:15;98027.13;;;1.56;63.59
59686;BME280;45554;51.096;16.976;2024-01-15T09:32:43;98028.11;;;1.57;63.84
59686;BME280;45554;51.096;16.976;2024-01-15T09:35:12;98049.79;;;1.58;63.50
59686;BME280;45554;51.096;16.976;2024-01-15T09:37:42;98053.06;;;1.59;63.22
59686;BME280;45554;51.096;16.976;2024-01-15T09:40:15;98035.48;;;1.58;63.29
59686;BME280;45554;51.096;16.976;2024-01-15T09:42:45;98035.36;;;1.57;63.33
59686;BME280;45554;51.096;16.976;2024-01-15T09:45:14;98044.98;;;1.57;63.09
59686;BME280;45554;51.096;16.976;2024-01-15T09:47:43;98044.59;;;1.58;63.07
59686;BME280;45554;51.096;16.976;2024-01-15T09:50:13;98048.51;;;1.60;62.84
59686;BME280;45554;51.096;16.976;2024-01-15T09:52:44;98055.63;;;1.62;62.96
59686;BME280;45554;51.096;16.976;2024-01-15T09:55:13;98050.61;;;1.62;62.79
59686;BME280;45554;51.096;16.976;2024-01-15T09:57:45;98052.23;;;1.64;62.81
59686;BME280;45554;51.096;16.976;2024-01-15T10:00:18;98058.48;;;1.64;62.55
59686;BME280;45554;51.096;16.976;2024-01-15T10:02:47;98052.92;;;1.64;62.45
59686;BME280;45554;51.096;16.976;2024-01-15T10:05:16;98051.23;;;1.63;62.16
59686;BME280;45554;51.096;16.976;2024-01-15T10:07:45;98030.14;;;1.64;62.64
59686;BME280;45554;51.096;16.976;2024-01-15T10:10:15;98021.09;;;1.66;62.85
59686;BME280;45554;51.096;16.976;2024-01-15T10:12:43;98031.52;;;1.68;62.94
59686;BME280;45554;51.096;16.976;2024-01-15T10:15:12;98044.69;;;1.70;62.64
59686;BME280;45554;51.096;16.976;2024-01-15T10:17:41;98032.36;;;1.71;62.50
59686;BME280;45554;51.096;16.976;2024-01-15T10:20:12;98021.45;;;1.74;62.64
59686;BME280;45554;51.096;16.976;2024-01-15T10:22:42;98034.23;;;1.77;62.16
59686;BME280;45554;51.096;16.976;2024-01-15T10:25:15;98032.08;;;1.79;62.20
59686;BME280;45554;51.096;16.976;2024-01-15T10:27:44;98037.91;;;1.80;61.78
59686;BME280;45554;51.096;16.976;2024-01-15T10:30:12;98038.28;;;1.83;61.70
59686;BME280;45554;51.096;16.976;2024-01-15T10:32:57;98027.54;;;1.86;61.88
59686;BME280;45554;51.096;16.976;2024-01-15T10:35:32;98028.31;;;1.88;61.82
59686;BME280;45554;51.096;16.976;2024-01-15T10:38:01;98031.23;;;1.88;61.49
59686;BME280;45554;51.096;16.976;2024-01-15T10:40:31;98025.95;;;1.90;61.67
59686;BME280;45554;51.096;16.976;2024-01-15T10:42:59;98021.78;;;1.91;61.41
59686;BME280;45554;51.096;16.976;2024-01-15T10:45:27;98022.41;;;1.92;61.48
59686;BME280;45554;51.096;16.976;2024-01-15T10:47:58;98011.07;;;1.94;61.53
59686;BME280;45554;51.096;16.976;2024-01-15T10:50:29;98026.39;;;1.95;61.20
59686;BME280;45554;51.096;16.976;2024-01-15T10:52:58;98006.93;;;2.00;61.24
59686;BME280;45554;51.096;16.976;2024-01-15T10:55:26;98004.69;;;2.06;61.36
59686;BME280;45554;51.096;16.976;2024-01-15T10:57:57;98003.52;;;2.15;61.54
59686;BME280;45554;51.096;16.976;2024-01-15T11:00:26;98007.02;;;2.20;60.89
59686;BME280;45554;51.096;16.976;2024-01-15T11:02:54;97996.23;;;2.21;60.60
59686;BME280;45554;51.096;16.976;2024-01-15T11:05:25;97995.55;;;2.21;60.63
59686;BME280;45554;51.096;16.976;2024-01-15T11:07:55;97997.52;;;2.23;60.53
59686;BME280;45554;51.096;16.976;2024-01-15T11:11:20;98013.70;;;2.24;60.14
59686;BME280;45554;51.096;16.976;2024-01-15T11:13:51;98004.48;;;2.28;59.92
59686;BME280;45554;51.096;16.976;2024-01-15T11:16:22;98017.73;;;2.32;59.65
59686;BME280;45554;51.096;16.976;2024-01-15T11:21:26;98003.64;;;2.49;59.05
59686;BME280;45554;51.096;16.976;2024-01-15T11:24:00;98016.93;;;2.58;58.77
59686;BME280;45554;51.096;16.976;2024-01-15T11:26:50;97997.61;;;2.63;58.73
59686;BME280;45554;51.096;16.976;2024-01-15T11:30:25;98003.89;;;2.65;58.51
59686;BME280;45554;51.096;16.976;2024-01-15T11:33:34;98015.09;;;2.63;57.81
59686;BME280;45554;51.096;16.976;2024-01-15T11:36:07;98000.10;;;2.62;58.64
59686;BME280;45554;51.096;16.976;2024-01-15T11:38:38;98007.30;;;2.60;58.60
59686;BME280;45554;51.096;16.976;2024-01-15T11:42:19;98013.27;;;2.53;58.35
59686;BME280;45554;51.096;16.976;2024-01-15T11:55:35;98002.80;;;2.30;59.40
59686;BME280;45554;51.096;16.976;2024-01-15T11:58:13;98002.15;;;2.33;59.24
59686;BME280;45554;51.096;16.976;2024-01-15T12:00:54;98004.34;;;2.40;59.29
59686;BME280;45554;51.096;16.976;2024-01-15T12:04:26;98012.60;;;2.40;58.92
59686;BME280;45554;51.096;16.976;2024-01-15T12:11:19;97999.79;;;2.35;59.51
59686;BME280;45554;51.096;16.976;2024-01-15T12:14:38;98003.03;;;2.29;59.87
59686;BME280;45554;51.096;16.976;2024-01-15T12:20:47;97998.79;;;2.18;60.47
59686;BME280;45554;51.096;16.976;2024-01-15T12:28:07;98011.45;;;2.15;60.05
59686;BME280;45554;51.096;16.976;2024-01-15T12:30:35;98020.30;;;2.14;60.05
59686;BME280;45554;51.096;16.976;2024-01-15T12:36:36;98014.36;;;2.09;60.10
59686;BME280;45554;51.096;16.976;2024-01-15T12:45:02;98009.59;;;2.05;60.06
59686;BME280;45554;51.096;16.976;2024-01-15T12:48:26;98012.39;;;2.01;60.12
59686;BME280;45554;51.096;16.976;2024-01-15T12:50:55;98008.28;;;1.97;60.11
59686;BME280;45554;51.096;16.976;2024-01-15T12:53:26;97998.34;;;1.96;60.49
59686;BME280;45554;51.096;16.976;2024-01-15T12:55:58;98000.64;;;1.95;60.63
59686;BME280;45554;51.096;16.976;2024-01-15T12:58:54;98015.48;;;1.95;60.29
59686;BME280;45554;51.096;16.976;2024-01-15T13:01:22;98001.92;;;1.94;60.31
59686;BME280;45554;51.096;16.976;2024-01-15T13:08:27;98012.18;;;1.89;60.47
59686;BME280;45554;51.096;16.976;2024-01-15T13:10:57;98012.24;;;1.85;60.17
59686;BME280;45554;51.096;16.976;2024-01-15T13:13:32;97991.47;;;1.83;60.72
59686;BME280;45554;51.096;16.976;2024-01-15T13:16:02;98002.16;;;1.80;61.09
59686;BME280;45554;51.096;16.976;2024-01-15T13:18:30;98002.62;;;1.78;61.07
59686;BME280;45554;51.096;16.976;2024-01-15T13:20:59;98011.56;;;1.75;60.79
59686;BME280;45554;51.096;16.976;2024-01-15T13:23:28;98001.54;;;1.73;60.82
59686;BME280;45554;51.096;16.976;2024-01-15T13:25:58;97995.76;;;1.71;61.26
59686;BME280;45554;51.096;16.976;2024-01-15T13:28:27;97993.18;;;1.70;61.75
59686;BME280;45554;51.096;16.976;2024-01-15T13:30:57;97996.85;;;1.70;61.50
59686;BME280;45554;51.096;16.976;2024-01-15T13:33:25;98002.54;;;1.70;61.56
59686;BME280;45554;51.096;16.976;2024-01-15T13:35:54;97995.70;;;1.69;61.64
59686;BME280;45554;51.096;16.976;2024-01-15T13:38:54;98006.13;;;1.68;61.50
59686;BME280;45554;51.096;16.976;2024-01-15T13:41:26;98006.52;;;1.67;61.47
59686;BME280;45554;51.096;16.976;2024-01-15T13:49:02;98007.96;;;1.62;61.55
59686;BME280;45554;51.096;16.976;2024-01-15T13:53:19;98003.00;;;1.61;61.52
59686;BME280;45554;51.096;16.976;2024-01-15T13:56:58;97998.68;;;1.61;61.72
59686;BME280;45554;51.096;16.976;2024-01-15T14:00:26;98014.63;;;1.60;61.47
59686;BME280;45554;51.096;16.976;2024-01-15T14:03:57;97999.97;;;1.60;61.77
59686;BME280;45554;51.096;16.976;2024-01-15T14:06:28;98028.46;;;1.60;61.11